Time;durP1;ratioP1;P1;durP2;ratioP2;P2;SDS_P1;SDS_P2;PMS_P1;PMS_P2;Temp;Humidity;BMP_temperature;BMP_pressure;BME280_temperature;BME280_humidity;BME280_pressure;Samples;Min_cycle;Max_cycle;Signal;HPM_P1;HPM_P2
2021/12/06 00:00:35;;;;;;;11.57;6.33;;;15.00;83.10;;;;;;1986913;29;20183;-82
2021/12/06 00:01:44;;;;;;;10.85;6.03;;;15.00;83.40;;;;;;1988232;29;20156;-81
2021/12/06 00:02:43;;;;;;;9.15;5.50;;;15.00;83.30;;;;;;1990876;29;20204;-80
2021/12/06 00:03:53;;;;;;;7.57;5.47;;;15.00;83.20;;;;;;1991127;29;20198;-80
2021/12/06 00:04:51;;;;;;;6.65;5.10;;;15.00;83.30;;;;;;1990743;29;20163;-81
2021/12/06 00:05:50;;;;;;;8.70;5.87;;;15.10;83.50;;;;;;1990202;29;20175;-80
2021/12/06 00:06:56;;;;;;;11.37;5.67;;;15.00;83.40;;;;;;1989259;29;20650;-82
2021/12/06 00:07:55;;;;;;;9.00;5.55;;;15.00;83.60;;;;;;1986124;29;20673;-81
2021/12/06 00:08:54;;;;;;;9.43;5.93;;;15.00;83.40;;;;;;1986377;29;20171;-81
2021/12/06 00:09:52;;;;;;;9.50;5.97;;;15.00;83.20;;;;;;1987339;29;20175;-82
2021/12/06 00:10:51;;;;;;;10.77;5.03;;;15.00;83.30;;;;;;1987141;29;20437;-81
2021/12/06 00:11:56;;;;;;;8.65;5.97;;;15.00;83.40;;;;;;1987419;29;20171;-82
2021/12/06 00:12:55;;;;;;;10.90;5.70;;;15.00;83.30;;;;;;1993908;28;20693;-81
2021/12/06 00:13:54;;;;;;;10.77;5.60;;;15.00;83.40;;;;;;1993967;28;20193;-83
2021/12/06 00:14:52;;;;;;;9.20;5.70;;;15.00;83.50;;;;;;1987115;28;20187;-82
2021/12/06 00:15:52;;;;;;;8.40;5.47;;;15.00;83.50;;;;;;1986050;29;20167;-82
2021/12/06 00:16:50;;;;;;;8.07;5.10;;;15.00;83.30;;;;;;1986241;29;20190;-84
2021/12/06 00:17:49;;;;;;;9.10;5.93;;;15.00;83.30;;;;;;1984943;29;20172;-83
2021/12/06 00:18:49;;;;;;;8.57;5.70;;;15.00;83.30;;;;;;1984518;29;20226;-83
2021/12/06 00:19:48;;;;;;;8.43;5.53;;;14.90;83.30;;;;;;1984333;29;20422;-82
2021/12/06 00:20:46;;;;;;;10.97;6.10;;;15.10;83.40;;;;;;1983937;29;20262;-83
2021/12/06 00:21:45;;;;;;;9.53;6.30;;;15.00;83.60;;;;;;1983302;29;20319;-83
2021/12/06 00:22:44;;;;;;;7.63;5.23;;;15.00;83.50;;;;;;1983470;29;20180;-83
2021/12/06 00:23:43;;;;;;;7.20;5.10;;;15.00;83.30;;;;;;1984324;29;20172;-83
2021/12/06 00:24:42;;;;;;;11.90;6.40;;;15.00;83.20;;;;;;1984180;29;20179;-83
2021/12/06 00:25:40;;;;;;;7.95;5.10;;;15.00;83.20;;;;;;1984322;29;20449;-83
2021/12/06 00:26:39;;;;;;;7.90;5.07;;;15.00;82.90;;;;;;1983314;29;20592;-83
2021/12/06 00:27:39;;;;;;;8.60;6.33;;;14.90;83.00;;;;;;1983491;29;20645;-83
2021/12/06 00:28:38;;;;;;;9.40;4.95;;;15.00;83.00;;;;;;1983982;29;20183;-82
2021/12/06 00:29:38;;;;;;;8.07;4.57;;;14.90;82.90;;;;;;1983967;29;20183;-81
2021/12/06 00:30:36;;;;;;;9.90;6.35;;;14.90;82.80;;;;;;1984454;29;20199;-81
2021/12/06 00:31:36;;;;;;;8.63;5.90;;;14.90;83.20;;;;;;1984064;29;20639;-82
2021/12/06 00:32:35;;;;;;;8.10;5.18;;;14.90;83.10;;;;;;1982746;29;20283;-83
2021/12/06 00:33:34;;;;;;;9.23;5.43;;;15.00;82.90;;;;;;1983020;29;20548;-83
2021/12/06 00:34:34;;;;;;;8.43;5.40;;;15.00;83.10;;;;;;1989804;28;20257;-84
2021/12/06 00:35:33;;;;;;;9.02;5.30;;;14.90;83.10;;;;;;1990185;28;20402;-83
2021/12/06 00:36:34;;;;;;;10.53;5.43;;;15.00;83.00;;;;;;1983159;28;20666;-83
2021/12/06 00:37:34;;;;;;;9.82;5.68;;;14.90;82.80;;;;;;1989904;28;20185;-83
2021/12/06 00:38:35;;;;;;;11.10;6.60;;;14.90;82.80;;;;;;1982337;28;20187;-82
2021/12/06 00:39:33;;;;;;;8.10;4.78;;;14.90;82.90;;;;;;1982024;29;20179;-83
2021/12/06 00:40:38;;;;;;;7.67;5.23;;;15.00;83.00;;;;;;1982966;29;20183;-82
2021/12/06 00:41:38;;;;;;;10.45;5.88;;;14.90;82.90;;;;;;1982210;29;20171;-84
2021/12/06 00:42:37;;;;;;;9.50;5.90;;;14.90;82.90;;;;;;1982092;29;20649;-82
2021/12/06 00:43:36;;;;;;;9.07;5.70;;;14.90;83.30;;;;;;1990770;28;20183;-82
2021/12/06 00:44:34;;;;;;;9.07;5.10;;;14.90;83.10;;;;;;1983220;28;20179;-83
2021/12/06 00:45:34;;;;;;;10.40;5.90;;;14.90;83.20;;;;;;1983867;29;20175;-83
2021/12/06 00:46:33;;;;;;;8.77;5.93;;;14.90;83.00;;;;;;1983023;29;20195;-82
2021/12/06 00:47:31;;;;;;;9.88;5.70;;;15.00;83.00;;;;;;1992714;28;20189;-82
2021/12/06 00:48:30;;;;;;;11.17;6.00;;;15.00;83.10;;;;;;1992355;28;20210;-84
2021/12/06 00:49:28;;;;;;;7.77;5.00;;;15.00;82.90;;;;;;1985867;28;20274;-83
2021/12/06 00:50:31;;;;;;;8.43;5.87;;;15.00;83.10;;;;;;1987193;29;20242;-82
2021/12/06 00:51:30;;;;;;;9.23;5.88;;;15.00;83.00;;;;;;1985561;29;20184;-83
2021/12/06 00:52:28;;;;;;;12.13;6.30;;;15.00;83.10;;;;;;1985587;29;20183;-83
2021/12/06 00:53:27;;;;;;;6.67;5.10;;;15.00;83.20;;;;;;1985437;29;20257;-85
2021/12/06 00:54:26;;;;;;;7.55;5.20;;;15.00;83.00;;;;;;1985805;29;20171;-82
2021/12/06 00:55:26;;;;;;;8.40;5.37;;;15.00;83.10;;;;;;1985381;29;20185;-83
2021/12/06 00:56:25;;;;;;;9.15;5.80;;;15.00;83.20;;;;;;1983501;29;20195;-84
2021/12/06 00:57:24;;;;;;;10.20;5.97;;;15.00;83.30;;;;;;1982793;29;20194;-83
2021/12/06 00:58:23;;;;;;;9.47;5.00;;;15.10;83.20;;;;;;1982599;29;20411;-84
2021/12/06 00:59:22;;;;;;;8.75;5.00;;;15.10;83.10;;;;;;1989580;28;20418;-83
2021/12/06 01:00:35;;;;;;;6.47;4.60;;;15.10;83.00;;;;;;1989703;28;20182;-83
2021/12/06 01:01:34;;;;;;;8.68;5.47;;;15.10;83.30;;;;;;1982607;28;20156;-83
2021/12/06 01:02:33;;;;;;;9.70;5.75;;;15.10;83.20;;;;;;1982583;28;20191;-83
2021/12/06 01:03:34;;;;;;;8.50;5.17;;;15.10;83.60;;;;;;1982310;29;20171;-83
2021/12/06 01:04:34;;;;;;;7.65;5.25;;;15.10;83.40;;;;;;1982257;29;20259;-83
2021/12/06 01:05:33;;;;;;;6.30;5.13;;;15.10;83.20;;;;;;1982370;29;20206;-83
2021/12/06 01:06:32;;;;;;;7.90;4.60;;;15.10;83.40;;;;;;1982320;29;20191;-83
2021/12/06 01:07:31;;;;;;;9.13;5.30;;;15.10;83.00;;;;;;1981870;29;20195;-83
2021/12/06 01:08:29;;;;;;;8.40;4.60;;;15.10;83.20;;;;;;1981824;29;20236;-82
2021/12/06 01:09:28;;;;;;;12.20;5.23;;;15.10;83.20;;;;;;1982281;29;20190;-83
2021/12/06 01:10:29;;;;;;;8.53;5.33;;;15.10;83.00;;;;;;1982497;29;20198;-84
2021/12/06 01:11:28;;;;;;;7.95;4.85;;;15.10;83.00;;;;;;1989506;28;20520;-83
2021/12/06 01:12:26;;;;;;;7.83;5.60;;;15.10;83.00;;;;;;1989451;28;20178;-84
2021/12/06 01:13:26;;;;;;;7.50;5.23;;;15.10;82.60;;;;;;1982854;28;20195;-83
2021/12/06 01:14:25;;;;;;;9.68;6.13;;;15.10;82.60;;;;;;1982450;29;20171;-83
2021/12/06 01:15:25;;;;;;;9.13;5.77;;;15.10;82.70;;;;;;1982229;29;20270;-84
2021/12/06 01:16:25;;;;;;;6.97;5.25;;;15.10;82.70;;;;;;1982099;29;20195;-81
2021/12/06 01:17:24;;;;;;;8.65;5.22;;;15.10;82.60;;;;;;1981653;29;20182;-82
2021/12/06 01:18:24;;;;;;;10.93;5.60;;;15.10;82.70;;;;;;1981874;29;20521;-84
2021/12/06 01:19:28;;;;;;;8.40;5.38;;;15.10;82.90;;;;;;1982434;29;20183;-84
2021/12/06 01:20:30;;;;;;;9.77;5.05;;;15.10;82.80;;;;;;1981793;29;20182;-82
2021/12/06 01:22:10;;;;;;;7.90;5.40;;;15.10;82.60;;;;;;1981807;29;20183;-84
2021/12/06 01:22:58;;;;;;;9.45;5.32;;;15.20;82.90;;;;;;1982142;28;20666;-84
2021/12/06 01:24:00;;;;;;;12.60;6.35;;;15.10;82.80;;;;;;1982484;29;20611;-82
2021/12/06 01:25:05;;;;;;;10.40;5.40;;;15.10;82.60;;;;;;1982337;29;20187;-82
2021/12/06 01:30:54;;;;;;;7.53;5.30;;;15.10;82.90;;;;;;1983341;29;20190;-83
2021/12/06 01:32:04;;;;;;;11.35;6.60;;;15.20;83.70;;;;;;1983417;29;20187;-84
2021/12/06 01:39:20;;;;;;;10.60;6.10;;;15.40;83.60;;;;;;1982273;29;20650;-84
2021/12/06 01:40:21;;;;;;;9.73;6.05;;;15.10;83.30;;;;;;1981399;29;20183;-84
2021/12/06 01:41:20;;;;;;;9.00;5.10;;;15.20;83.20;;;;;;1981454;29;20194;-81
2021/12/06 01:42:19;;;;;;;11.87;5.53;;;15.20;82.90;;;;;;1989245;28;20186;-84
2021/12/06 01:43:17;;;;;;;9.43;5.33;;;15.10;82.80;;;;;;1982546;28;20434;-83
2021/12/06 01:44:31;;;;;;;10.03;4.90;;;15.10;82.60;;;;;;1982314;29;20225;-84
2021/12/06 01:45:30;;;;;;;7.70;5.53;;;15.10;82.60;;;;;;1982271;29;20614;-83
2021/12/06 01:46:31;;;;;;;9.20;5.63;;;15.10;82.50;;;;;;1982021;29;20202;-84
2021/12/06 01:47:35;;;;;;;7.40;4.10;;;15.10;82.50;;;;;;1981976;29;20186;-82
2021/12/06 01:48:33;;;;;;;7.45;5.53;;;15.10;82.50;;;;;;1982036;29;20583;-82
2021/12/06 01:49:37;;;;;;;7.80;4.97;;;15.10;82.40;;;;;;1983464;29;20250;-82
2021/12/06 01:50:35;;;;;;;9.68;5.72;;;15.10;82.40;;;;;;1984575;29;20199;-83
2021/12/06 01:51:35;;;;;;;9.20;5.67;;;15.10;82.70;;;;;;1984074;29;20199;-82
2021/12/06 01:52:44;;;;;;;9.13;4.90;;;15.10;82.20;;;;;;1984679;29;20182;-83
2021/12/06 01:53:42;;;;;;;8.48;5.25;;;15.10;82.20;;;;;;1984121;29;20207;-83
2021/12/06 01:54:41;;;;;;;9.57;5.60;;;15.10;82.20;;;;;;1985205;29;20239;-82
2021/12/06 01:55:40;;;;;;;10.10;5.73;;;15.10;82.10;;;;;;1984519;29;20258;-83
2021/12/06 01:56:39;;;;;;;8.90;5.30;;;15.10;82.30;;;;;;1981983;29;20202;-83
2021/12/06 01:57:38;;;;;;;8.80;5.80;;;15.10;82.00;;;;;;1982026;29;20171;-82
2021/12/06 01:58:37;;;;;;;9.53;5.00;;;15.10;82.20;;;;;;1982123;29;20226;-82
2021/12/06 01:59:35;;;;;;;8.77;4.93;;;15.10;82.10;;;;;;1980789;28;20411;-82
2021/12/06 02:00:42;;;;;;;10.30;5.63;;;15.10;82.30;;;;;;1981479;29;20508;-84
2021/12/06 02:01:42;;;;;;;9.43;5.63;;;15.10;82.30;;;;;;1988959;28;20190;-82
2021/12/06 02:02:40;;;;;;;7.43;4.88;;;15.10;82.50;;;;;;1989070;28;20202;-83
2021/12/06 02:03:39;;;;;;;7.90;5.10;;;15.20;82.30;;;;;;1982252;28;20634;-82
2021/12/06 02:04:39;;;;;;;8.10;5.50;;;15.10;82.10;;;;;;1982097;29;20228;-84
2021/12/06 02:05:40;;;;;;;10.00;5.65;;;15.10;82.40;;;;;;1982061;29;20514;-82
2021/12/06 02:06:40;;;;;;;9.32;5.57;;;15.10;82.30;;;;;;1981942;29;20571;-83
2021/12/06 02:07:38;;;;;;;9.20;5.50;;;15.20;82.30;;;;;;1981893;29;20183;-82
2021/12/06 02:08:37;;;;;;;11.43;5.63;;;15.10;82.10;;;;;;1982004;29;20183;-81
2021/12/06 02:09:36;;;;;;;10.27;4.90;;;15.10;82.00;;;;;;1981733;29;20186;-82
2021/12/06 02:10:36;;;;;;;9.53;5.40;;;15.10;82.00;;;;;;1981184;29;20470;-81
2021/12/06 02:11:36;;;;;;;7.53;5.00;;;15.20;82.30;;;;;;1981280;29;20310;-81
2021/12/06 02:12:35;;;;;;;8.43;5.93;;;15.10;82.00;;;;;;1981757;29;20179;-82
2021/12/06 02:13:46;;;;;;;10.43;5.30;;;15.10;82.10;;;;;;1981932;29;20630;-81
2021/12/06 02:15:00;;;;;;;9.80;5.55;;;15.10;82.20;;;;;;1981203;29;20179;-82
2021/12/06 02:15:59;;;;;;;8.88;5.40;;;15.10;82.00;;;;;;1981346;29;20166;-82
2021/12/06 02:18:09;;;;;;;8.27;4.90;;;15.10;82.00;;;;;;1981896;29;20828;-82
2021/12/06 02:19:09;;;;;;;8.98;5.50;;;15.10;82.40;;;;;;1981989;28;20191;-82
2021/12/06 02:20:15;;;;;;;10.75;5.47;;;15.20;82.40;;;;;;1981129;29;20175;-83
2021/12/06 02:21:15;;;;;;;11.23;6.13;;;15.10;82.20;;;;;;1981330;29;20175;-82
2021/12/06 02:22:23;;;;;;;9.18;5.63;;;15.10;82.30;;;;;;1981829;29;20646;-84
2021/12/06 02:23:21;;;;;;;7.05;5.13;;;15.10;82.40;;;;;;1988798;28;20225;-82
2021/12/06 02:24:20;;;;;;;7.07;5.10;;;15.10;82.20;;;;;;1988959;28;20171;-82
2021/12/06 02:25:19;;;;;;;8.20;5.20;;;15.10;82.20;;;;;;1982359;28;20515;-82
2021/12/06 02:26:19;;;;;;;7.97;4.65;;;15.10;82.30;;;;;;1981727;29;20205;-83
2021/12/06 02:27:17;;;;;;;8.18;5.10;;;15.10;82.20;;;;;;1981860;29;20269;-82
2021/12/06 02:28:16;;;;;;;7.43;5.60;;;15.10;82.10;;;;;;1981693;29;20230;-82
2021/12/06 02:29:16;;;;;;;6.97;4.50;;;15.10;82.20;;;;;;1981824;29;20642;-82
2021/12/06 02:30:16;;;;;;;11.98;4.82;;;15.10;82.20;;;;;;1981802;29;20202;-82
2021/12/06 02:31:17;;;;;;;10.55;5.80;;;15.10;82.20;;;;;;1981914;29;20176;-81
2021/12/06 02:32:17;;;;;;;8.95;5.00;;;15.10;82.30;;;;;;1981754;29;20654;-82
2021/12/06 02:33:15;;;;;;;7.20;5.20;;;15.10;82.30;;;;;;1981792;29;20234;-82
2021/12/06 02:34:14;;;;;;;7.87;5.13;;;15.10;82.30;;;;;;1989086;28;20182;-82
2021/12/06 02:35:17;;;;;;;9.20;5.40;;;15.10;82.30;;;;;;1988933;28;20174;-82
2021/12/06 02:36:16;;;;;;;9.63;5.55;;;15.10;82.50;;;;;;1981819;28;20238;-82
2021/12/06 02:37:18;;;;;;;8.38;5.18;;;15.00;82.30;;;;;;1981780;29;20183;-82
2021/12/06 02:38:16;;;;;;;10.02;5.80;;;15.10;82.30;;;;;;1981705;29;20575;-83
2021/12/06 02:39:21;;;;;;;7.83;5.17;;;15.10;82.20;;;;;;1980966;29;20183;-82
2021/12/06 02:40:27;;;;;;;5.28;4.55;;;15.10;82.40;;;;;;1981030;28;20178;-82
2021/12/06 02:41:26;;;;;;;7.35;5.60;;;15.20;82.50;;;;;;1981815;28;20669;-83
2021/12/06 02:42:26;;;;;;;8.27;5.15;;;15.10;82.30;;;;;;1980960;29;20183;-83
2021/12/06 02:43:24;;;;;;;8.25;5.25;;;15.10;82.20;;;;;;1981155;29;20176;-83
2021/12/06 02:44:23;;;;;;;11.43;5.70;;;15.10;82.20;;;;;;1988573;28;20178;-82
2021/12/06 02:45:25;;;;;;;6.50;4.17;;;15.10;82.40;;;;;;1988766;28;20191;-83
2021/12/06 02:46:24;;;;;;;11.82;5.70;;;15.10;82.40;;;;;;1981634;28;20221;-83
2021/12/06 02:47:22;;;;;;;8.10;4.70;;;15.10;82.30;;;;;;1981686;29;20183;-83
2021/12/06 02:48:22;;;;;;;7.43;4.83;;;15.10;82.30;;;;;;1981671;29;20537;-83
2021/12/06 02:49:20;;;;;;;7.10;4.65;;;15.10;82.20;;;;;;1988732;28;20654;-82
2021/12/06 02:50:23;;;;;;;8.70;5.77;;;15.10;82.30;;;;;;1988863;28;20214;-83
2021/12/06 02:51:22;;;;;;;7.68;5.15;;;15.10;82.20;;;;;;1981639;28;20198;-82
2021/12/06 02:52:20;;;;;;;10.03;5.60;;;15.10;82.30;;;;;;1981535;29;20219;-82
2021/12/06 02:53:21;;;;;;;9.80;5.73;;;15.10;82.30;;;;;;1981566;29;20501;-82
2021/12/06 02:54:22;;;;;;;6.70;4.65;;;15.10;82.20;;;;;;1981698;29;20246;-84
2021/12/06 02:55:32;;;;;;;6.25;4.78;;;15.00;82.30;;;;;;1981632;29;20175;-82
2021/12/06 02:56:49;;;;;;;7.97;5.20;;;15.00;82.20;;;;;;1980893;29;20201;-82
2021/12/06 02:57:54;;;;;;;7.85;5.40;;;15.00;82.20;;;;;;1981361;29;20186;-83
2021/12/06 02:58:56;;;;;;;6.45;4.85;;;15.00;82.10;;;;;;1980843;29;20167;-84
2021/12/06 02:59:55;;;;;;;8.02;5.00;;;15.10;82.30;;;;;;1981209;29;20175;-83
2021/12/06 03:00:55;;;;;;;6.90;4.93;;;15.00;82.20;;;;;;1988724;28;20645;-83
2021/12/06 03:02:00;;;;;;;9.25;5.18;;;15.10;82.50;;;;;;1981690;28;20199;-82
2021/12/06 03:02:58;;;;;;;7.55;4.97;;;15.00;82.20;;;;;;1988574;28;20178;-82
2021/12/06 03:03:58;;;;;;;9.00;5.07;;;15.10;82.10;;;;;;1988722;28;20213;-82
2021/12/06 03:04:57;;;;;;;9.80;4.97;;;15.10;82.20;;;;;;1981757;28;20580;-85
2021/12/06 03:05:56;;;;;;;7.53;4.90;;;15.10;82.10;;;;;;1981242;29;20194;-82
2021/12/06 03:06:56;;;;;;;8.23;5.40;;;15.10;82.90;;;;;;1988520;28;20186;-82
2021/12/06 03:07:59;;;;;;;7.90;4.90;;;15.10;82.20;;;;;;1980730;29;20470;-81
2021/12/06 03:09:08;;;;;;;8.68;4.68;;;15.10;82.30;;;;;;1973194;29;20583;-83
2021/12/06 03:10:09;;;;;;;8.27;5.60;;;15.10;82.20;;;;;;1980904;28;20199;-82
2021/12/06 03:11:18;;;;;;;8.60;5.40;;;15.10;82.30;;;;;;1981009;29;20666;-83
2021/12/06 03:12:19;;;;;;;10.02;5.75;;;15.10;82.30;;;;;;1981551;29;20247;-81
2021/12/06 03:13:17;;;;;;;11.40;5.43;;;15.00;82.40;;;;;;1980897;29;20175;-82
2021/12/06 03:14:21;;;;;;;7.07;4.80;;;15.00;82.20;;;;;;1980996;29;20171;-83
2021/12/06 03:15:21;;;;;;;7.43;5.10;;;15.00;82.20;;;;;;1981535;28;20174;-82
2021/12/06 03:16:20;;;;;;;7.95;5.25;;;15.00;82.10;;;;;;1980683;29;20270;-83
2021/12/06 03:17:21;;;;;;;8.30;4.90;;;15.30;82.50;;;;;;1981160;29;20182;-82
2021/12/06 03:18:20;;;;;;;8.70;5.38;;;15.00;82.10;;;;;;1981485;29;20414;-83
2021/12/06 03:19:19;;;;;;;7.53;4.90;;;15.10;82.50;;;;;;1981680;29;20207;-82
2021/12/06 03:20:18;;;;;;;9.05;5.38;;;15.00;82.40;;;;;;1981570;29;20174;-82
2021/12/06 03:21:17;;;;;;;5.90;4.77;;;15.10;82.50;;;;;;1981590;29;20210;-81
2021/12/06 03:22:17;;;;;;;9.93;5.68;;;15.00;82.20;;;;;;1981661;29;20411;-82
2021/12/06 03:23:16;;;;;;;8.60;5.80;;;15.00;82.30;;;;;;1981524;28;20237;-82
2021/12/06 03:24:14;;;;;;;8.57;5.00;;;15.00;82.50;;;;;;1981563;29;20226;-81
2021/12/06 03:25:17;;;;;;;8.40;5.57;;;15.00;82.40;;;;;;1981497;29;20183;-83
2021/12/06 03:26:16;;;;;;;8.85;5.13;;;15.00;82.50;;;;;;1981505;29;20210;-82
2021/12/06 03:27:17;;;;;;;10.18;5.72;;;15.00;82.40;;;;;;1981468;29;20206;-83
2021/12/06 03:28:15;;;;;;;10.68;5.50;;;15.00;82.50;;;;;;1981713;29;20175;-82
2021/12/06 03:29:14;;;;;;;7.03;4.93;;;15.00;82.20;;;;;;1981608;29;20179;-83
2021/12/06 03:30:14;;;;;;;8.60;5.40;;;15.00;82.30;;;;;;1981302;29;20195;-83
2021/12/06 03:31:14;;;;;;;11.80;5.38;;;15.00;82.40;;;;;;1981458;29;20210;-84
2021/12/06 03:32:13;;;;;;;8.52;4.95;;;15.00;82.50;;;;;;1988584;28;20182;-81
2021/12/06 03:33:11;;;;;;;7.25;4.60;;;15.00;82.20;;;;;;1988613;28;20177;-83
2021/12/06 03:34:10;;;;;;;7.60;5.80;;;15.00;82.10;;;;;;1981896;28;20249;-84
2021/12/06 03:35:10;;;;;;;7.43;4.83;;;15.00;82.20;;;;;;1981634;29;20638;-84
2021/12/06 03:36:09;;;;;;;8.18;4.82;;;14.90;82.10;;;;;;1981444;29;20262;-83
2021/12/06 03:37:08;;;;;;;8.98;5.15;;;15.00;82.10;;;;;;1981559;28;20611;-83
2021/12/06 03:38:07;;;;;;;9.88;5.50;;;15.00;82.20;;;;;;1981471;29;20512;-83
2021/12/06 03:39:20;;;;;;;8.53;5.73;;;15.00;82.20;;;;;;1981714;29;20207;-83
2021/12/06 03:40:19;;;;;;;8.52;5.60;;;15.00;82.30;;;;;;1981542;29;20167;-83
2021/12/06 03:41:19;;;;;;;8.00;5.47;;;15.00;82.40;;;;;;1981273;29;20267;-81
2021/12/06 03:42:20;;;;;;;8.02;5.35;;;15.00;82.20;;;;;;1981500;28;20250;-82
2021/12/06 03:43:19;;;;;;;9.35;5.50;;;15.00;82.20;;;;;;1981071;28;20191;-83
2021/12/06 03:44:20;;;;;;;8.30;5.80;;;15.00;82.10;;;;;;1980928;29;20190;-82
2021/12/06 03:45:18;;;;;;;8.15;5.50;;;15.00;82.20;;;;;;1988363;28;20237;-82
2021/12/06 03:46:19;;;;;;;8.47;5.13;;;15.00;82.30;;;;;;1988654;28;20252;-83
2021/12/06 03:47:23;;;;;;;8.55;5.30;;;15.00;82.20;;;;;;1981120;28;20172;-83
2021/12/06 03:48:22;;;;;;;8.98;5.50;;;15.00;82.00;;;;;;1981337;29;20172;-83
2021/12/06 03:49:21;;;;;;;8.27;4.97;;;15.00;82.00;;;;;;1981449;29;20174;-83
2021/12/06 03:50:19;;;;;;;7.97;4.70;;;14.90;82.00;;;;;;1981274;29;20466;-81
2021/12/06 03:51:18;;;;;;;7.87;4.80;;;14.90;82.10;;;;;;1981573;29;20171;-83
2021/12/06 03:52:17;;;;;;;6.80;4.90;;;15.00;82.20;;;;;;1981572;29;20350;-82
2021/12/06 03:53:17;;;;;;;5.80;5.00;;;14.90;82.20;;;;;;1981370;29;20250;-81
2021/12/06 03:54:20;;;;;;;7.35;4.93;;;15.00;82.20;;;;;;1980615;28;20761;-83
2021/12/06 03:55:18;;;;;;;6.93;4.97;;;14.90;82.10;;;;;;1980907;29;20180;-82
2021/12/06 03:56:18;;;;;;;10.03;5.63;;;14.90;82.00;;;;;;1981468;29;20183;-82
2021/12/06 03:57:18;;;;;;;6.47;4.85;;;14.90;82.20;;;;;;1981558;29;20532;-81
2021/12/06 03:58:16;;;;;;;9.65;5.63;;;15.00;82.30;;;;;;1988146;28;20198;-82
2021/12/06 03:59:15;;;;;;;7.80;5.20;;;14.90;82.30;;;;;;1988547;28;20208;-82
2021/12/06 04:00:15;;;;;;;7.27;5.03;;;14.90;82.20;;;;;;1981840;28;20179;-83
2021/12/06 04:01:14;;;;;;;8.00;5.18;;;14.90;82.40;;;;;;1981613;29;20407;-82
2021/12/06 04:02:13;;;;;;;8.13;5.00;;;15.00;82.40;;;;;;1981302;29;20191;-82
2021/12/06 04:03:12;;;;;;;6.97;4.83;;;14.90;82.30;;;;;;1981301;29;20179;-82
2021/12/06 04:04:10;;;;;;;8.18;4.85;;;14.90;82.10;;;;;;1981354;29;20542;-82
2021/12/06 04:05:09;;;;;;;8.40;5.50;;;14.90;82.20;;;;;;1981405;29;20211;-82
2021/12/06 04:06:09;;;;;;;8.50;4.80;;;14.90;82.40;;;;;;1988417;28;20907;-82
2021/12/06 04:07:08;;;;;;;9.45;5.50;;;14.90;82.50;;;;;;1980801;29;20187;-82
2021/12/06 04:08:07;;;;;;;7.32;4.85;;;14.80;82.20;;;;;;1980766;29;20175;-83
2021/12/06 04:09:06;;;;;;;9.10;5.53;;;14.90;82.40;;;;;;1981480;29;20187;-82
2021/12/06 04:10:07;;;;;;;8.50;4.72;;;14.90;82.40;;;;;;1981274;29;20749;-83
2021/12/06 04:11:06;;;;;;;9.90;5.45;;;14.90;82.40;;;;;;1980741;29;20184;-83
2021/12/06 04:12:07;;;;;;;8.52;5.18;;;14.90;82.30;;;;;;1981750;29;20176;-82
2021/12/06 04:13:06;;;;;;;8.65;5.22;;;14.90;82.40;;;;;;1983785;29;20175;-83
2021/12/06 04:14:06;;;;;;;8.23;5.50;;;15.00;83.30;;;;;;1983044;29;20187;-82
2021/12/06 04:15:08;;;;;;;7.43;5.03;;;14.90;82.60;;;;;;1983305;29;20643;-83
2021/12/06 04:16:07;;;;;;;10.77;5.57;;;15.00;82.40;;;;;;1983276;28;20290;-83
2021/12/06 04:17:06;;;;;;;10.90;5.85;;;14.90;82.20;;;;;;1982867;29;20202;-82
2021/12/06 04:18:05;;;;;;;8.85;5.18;;;14.90;82.30;;;;;;1990094;28;20281;-82
2021/12/06 04:19:04;;;;;;;7.30;4.90;;;14.90;82.40;;;;;;1989278;28;20177;-82
2021/12/06 04:20:08;;;;;;;9.45;5.40;;;14.90;82.50;;;;;;1981696;28;20251;-82
2021/12/06 04:21:09;;;;;;;7.15;5.18;;;14.90;82.40;;;;;;1981262;29;20216;-83
2021/12/06 04:22:10;;;;;;;9.20;5.38;;;14.90;82.40;;;;;;1981425;29;20164;-83
2021/12/06 04:23:11;;;;;;;8.27;5.28;;;14.90;82.40;;;;;;1981683;28;20171;-83
2021/12/06 04:24:11;;;;;;;8.90;5.18;;;14.90;82.40;;;;;;1982046;29;20196;-82
2021/12/06 04:25:12;;;;;;;7.45;5.13;;;14.90;82.20;;;;;;1982151;29;20171;-82
2021/12/06 04:26:11;;;;;;;7.00;5.47;;;14.90;82.90;;;;;;1989680;28;20163;-83
2021/12/06 04:27:14;;;;;;;6.67;4.60;;;14.90;82.30;;;;;;1989778;28;20190;-83
2021/12/06 04:28:15;;;;;;;8.45;4.80;;;14.90;82.50;;;;;;1982210;29;20163;-83
2021/12/06 04:29:16;;;;;;;8.65;5.40;;;14.90;82.30;;;;;;1989745;28;20237;-82
2021/12/06 04:30:14;;;;;;;7.68;5.00;;;14.90;82.50;;;;;;1989705;28;20720;-82
2021/12/06 04:31:17;;;;;;;5.70;4.20;;;14.80;82.20;;;;;;1982847;28;20262;-83
2021/12/06 04:32:16;;;;;;;8.00;4.65;;;14.90;82.00;;;;;;1982546;29;20219;-83
2021/12/06 04:33:15;;;;;;;8.50;4.63;;;14.90;82.10;;;;;;1989851;28;20265;-82
2021/12/06 04:34:14;;;;;;;8.55;4.93;;;14.90;82.40;;;;;;1982219;29;20210;-82
2021/12/06 04:35:13;;;;;;;7.65;5.05;;;14.90;82.40;;;;;;1982286;29;20643;-81
2021/12/06 04:36:11;;;;;;;7.17;4.57;;;14.90;82.20;;;;;;1982773;29;20539;-82
2021/12/06 04:37:11;;;;;;;7.87;4.20;;;14.90;82.40;;;;;;1983176;29;20665;-82
2021/12/06 04:38:10;;;;;;;9.50;5.43;;;14.90;82.50;;;;;;1983420;28;20175;-80
2021/12/06 04:39:11;;;;;;;6.72;4.75;;;14.90;82.40;;;;;;1983575;29;20230;-82
2021/12/06 04:40:11;;;;;;;8.13;5.13;;;14.90;82.40;;;;;;1984718;29;20174;-83
2021/12/06 04:41:09;;;;;;;8.10;5.20;;;14.90;83.00;;;;;;1985316;29;20175;-81
2021/12/06 04:42:08;;;;;;;6.73;4.70;;;14.90;82.40;;;;;;1987111;29;20247;-81
2021/12/06 04:43:07;;;;;;;7.90;4.97;;;14.90;82.20;;;;;;1988050;29;20190;-81
2021/12/06 04:44:06;;;;;;;7.17;4.70;;;14.90;82.20;;;;;;1986797;29;20171;-81
2021/12/06 04:45:05;;;;;;;9.35;5.10;;;14.90;82.10;;;;;;1985487;29;20234;-83
2021/12/06 04:46:04;;;;;;;7.88;5.07;;;14.90;82.10;;;;;;1985981;29;20291;-81
2021/12/06 04:47:04;;;;;;;6.60;4.60;;;14.90;82.10;;;;;;1987164;29;20287;-83
2021/12/06 04:48:04;;;;;;;9.38;5.50;;;14.90;82.30;;;;;;1983270;28;20238;-83
2021/12/06 04:49:04;;;;;;;8.15;5.40;;;14.90;82.20;;;;;;1982372;29;20698;-83
2021/12/06 04:50:04;;;;;;;6.97;4.82;;;14.90;82.30;;;;;;1982597;29;20171;-82
2021/12/06 04:51:04;;;;;;;6.95;4.95;;;14.90;82.10;;;;;;1982404;29;20266;-82
2021/12/06 04:52:07;;;;;;;7.75;5.18;;;14.90;82.10;;;;;;1982350;29;20514;-82
2021/12/06 04:53:17;;;;;;;7.50;4.80;;;14.90;81.80;;;;;;1982641;29;20169;-83
2021/12/06 04:54:20;;;;;;;7.65;4.63;;;14.90;82.00;;;;;;1982438;29;20176;-83
2021/12/06 04:55:34;;;;;;;9.13;5.10;;;14.90;82.10;;;;;;1982674;28;20529;-83
2021/12/06 04:56:40;;;;;;;8.07;4.63;;;14.90;82.00;;;;;;1982355;29;20202;-83
2021/12/06 04:57:41;;;;;;;7.40;4.28;;;14.90;82.20;;;;;;1982400;29;20642;-83
2021/12/06 04:58:53;;;;;;;7.63;4.78;;;14.90;82.10;;;;;;1982439;29;20289;-83
2021/12/06 05:00:10;;;;;;;6.97;4.45;;;14.90;82.20;;;;;;1982613;29;20159;-84
2021/12/06 05:01:12;;;;;;;5.70;3.85;;;14.90;82.20;;;;;;1982609;29;20167;-83
2021/12/06 05:02:15;;;;;;;8.05;5.07;;;14.90;82.20;;;;;;1982543;29;20179;-83
2021/12/06 05:03:14;;;;;;;6.68;4.65;;;14.90;82.30;;;;;;1982341;29;20257;-84
2021/12/06 05:04:20;;;;;;;6.97;4.63;;;14.90;82.10;;;;;;1981741;29;20542;-83
2021/12/06 05:05:31;;;;;;;6.65;4.25;;;14.80;82.00;;;;;;1982125;29;20175;-83
2021/12/06 05:06:33;;;;;;;6.07;4.15;;;14.80;82.20;;;;;;1982445;29;20294;-84
2021/12/06 05:07:37;;;;;;;5.60;4.13;;;14.90;82.30;;;;;;1982500;29;20179;-83
2021/12/06 05:08:40;;;;;;;7.22;4.93;;;14.90;82.50;;;;;;1981873;29;20551;-82
2021/12/06 05:09:41;;;;;;;5.60;4.20;;;14.90;82.10;;;;;;1982121;29;20725;-84
2021/12/06 05:10:40;;;;;;;6.57;4.22;;;14.90;82.30;;;;;;1989562;28;20206;-83
2021/12/06 05:11:40;;;;;;;9.10;5.15;;;14.90;82.20;;;;;;1989462;28;20242;-84
2021/12/06 05:12:39;;;;;;;9.27;4.57;;;14.90;82.00;;;;;;1982672;28;20201;-82
2021/12/06 05:13:42;;;;;;;6.20;4.10;;;14.90;82.00;;;;;;1982370;29;20757;-84
2021/12/06 05:14:41;;;;;;;10.77;4.70;;;14.90;82.20;;;;;;1981630;29;20272;-83
2021/12/06 05:15:39;;;;;;;7.60;4.82;;;14.90;82.20;;;;;;1981734;29;20175;-81
2021/12/06 05:16:38;;;;;;;7.40;5.17;;;14.90;82.00;;;;;;1982542;28;20202;-82
2021/12/06 05:17:37;;;;;;;5.20;4.20;;;14.90;82.20;;;;;;1982121;29;20179;-81
2021/12/06 05:18:35;;;;;;;7.57;4.73;;;14.90;82.10;;;;;;1981629;29;20179;-82
2021/12/06 05:19:34;;;;;;;8.97;4.60;;;14.90;82.10;;;;;;1981571;29;20945;-82
2021/12/06 05:20:34;;;;;;;8.10;4.80;;;14.90;82.30;;;;;;1982154;29;20179;-82
2021/12/06 05:21:34;;;;;;;9.93;4.82;;;14.90;81.90;;;;;;1982205;29;20534;-82
2021/12/06 05:22:33;;;;;;;7.45;4.55;;;14.90;81.70;;;;;;1981541;29;20182;-82
2021/12/06 05:23:32;;;;;;;6.43;4.73;;;14.90;81.80;;;;;;1981583;29;20175;-81
2021/12/06 05:24:31;;;;;;;7.45;4.57;;;14.90;82.10;;;;;;1982343;29;20634;-81
2021/12/06 05:25:30;;;;;;;7.63;4.17;;;14.90;81.80;;;;;;1982122;29;20179;-80
2021/12/06 05:26:29;;;;;;;6.30;4.07;;;14.90;81.80;;;;;;1981968;29;20968;-81
2021/12/06 05:27:29;;;;;;;5.10;3.30;;;14.90;81.80;;;;;;1981746;29;20411;-80